createdAt,value
2022-11-12T00:00:32.366Z,7.10
2022-11-12T00:03:20.554Z,8.35
2022-11-12T00:06:07.039Z,6.45
2022-11-12T00:08:53.614Z,7.82
2022-11-12T00:11:40.485Z,7.72
2022-11-12T00:14:27.142Z,6.70
2022-11-12T00:17:13.852Z,8.52
2022-11-12T00:20:01.833Z,7.78
2022-11-12T00:22:48.557Z,6.57
2022-11-12T00:25:35.665Z,6.70
2022-11-12T00:28:22.101Z,6.78
2022-11-12T00:31:10.829Z,6.25
2022-11-12T00:33:57.412Z,5.80
2022-11-12T00:36:45.423Z,5.35
2022-11-12T00:39:32.103Z,5.63
2022-11-12T00:42:18.803Z,5.50
2022-11-12T00:45:06.380Z,5.40
2022-11-12T00:47:55.963Z,5.30
2022-11-12T00:50:42.408Z,6.53
2022-11-12T00:53:30.663Z,5.60
2022-11-12T00:56:17.601Z,5.72
2022-11-12T00:59:04.231Z,6.03
2022-11-12T01:01:50.872Z,6.22
2022-11-12T01:04:37.647Z,5.50
2022-11-12T01:07:24.454Z,5.47
2022-11-12T01:10:12.951Z,5.75
2022-11-12T01:12:59.528Z,5.03
2022-11-12T01:15:46.350Z,4.63
2022-11-12T01:18:32.989Z,4.85
2022-11-12T01:21:24.013Z,4.60
2022-11-12T01:24:11.364Z,5.00
2022-11-12T01:26:59.145Z,5.65
2022-11-12T01:29:45.775Z,6.03
2022-11-12T01:32:36.754Z,5.25
2022-11-12T01:35:23.085Z,5.55
2022-11-12T01:38:09.827Z,5.13
2022-11-12T01:40:56.280Z,5.40
2022-11-12T01:43:44.514Z,5.03
2022-11-12T01:46:31.698Z,6.85
2022-11-12T01:49:22.123Z,5.57
2022-11-12T01:52:15.177Z,5.18
2022-11-12T01:55:07.689Z,5.63
2022-11-12T01:57:57.541Z,5.20
2022-11-12T02:00:47.495Z,6.00
2022-11-12T02:03:33.824Z,5.43
2022-11-12T02:06:21.423Z,4.93
2022-11-12T02:09:08.264Z,5.35
2022-11-12T02:11:55.081Z,6.82
2022-11-12T02:14:40.921Z,6.45
2022-11-12T02:17:29.079Z,5.38
2022-11-12T02:20:17.285Z,5.13
2022-11-12T02:23:05.710Z,4.72
2022-11-12T02:25:52.478Z,5.18
2022-11-12T02:28:39.187Z,4.65
2022-11-12T02:31:25.926Z,5.35
2022-11-12T02:34:12.723Z,5.70
2022-11-12T02:36:59.438Z,5.95
2022-11-12T02:39:47.473Z,5.20
2022-11-12T02:42:34.241Z,5.22
2022-11-12T02:45:21.087Z,5.30
2022-11-12T02:48:07.656Z,5.47
2022-11-12T02:50:54.085Z,6.47
2022-11-12T02:53:40.935Z,5.93
2022-11-12T02:56:28.843Z,7.32
2022-11-12T02:59:15.536Z,5.80
2022-11-12T03:02:02.281Z,6.75
2022-11-12T03:04:49.691Z,6.53
2022-11-12T03:07:36.620Z,6.00
2022-11-12T03:10:23.453Z,5.68
2022-11-12T03:13:11.730Z,5.82
2022-11-12T03:16:01.294Z,5.75
2022-11-12T03:18:47.675Z,5.53
2022-11-12T03:21:34.478Z,6.32
2022-11-12T03:24:21.005Z,6.35
2022-11-12T03:27:07.691Z,5.00
2022-11-12T03:29:55.827Z,5.65
2022-11-12T03:32:42.617Z,4.95
2022-11-12T03:35:29.759Z,5.55
2022-11-12T03:38:16.501Z,5.20
2022-11-12T03:41:03.231Z,5.00
2022-11-12T03:43:49.778Z,3.83
2022-11-12T03:46:41.524Z,4.38
2022-11-12T03:49:30.437Z,5.38
2022-11-12T03:52:19.098Z,4.90
2022-11-12T03:55:06.442Z,5.38
2022-11-12T03:57:54.701Z,6.22
2022-11-12T04:00:41.163Z,6.78
2022-11-12T04:03:29.314Z,4.97
2022-11-12T04:06:33.676Z,4.85
2022-11-12T04:09:20.178Z,4.82
2022-11-12T04:12:20.839Z,4.85
2022-11-12T04:15:07.811Z,4.15
2022-11-12T04:18:12.301Z,4.25
2022-11-12T04:21:18.182Z,4.18
2022-11-12T04:24:05.126Z,4.57
2022-11-12T04:26:50.823Z,4.72
2022-11-12T04:29:54.854Z,4.10
2022-11-12T04:32:48.708Z,4.38
2022-11-12T04:35:35.754Z,4.95
2022-11-12T04:38:24.019Z,5.13
2022-11-12T04:41:28.592Z,4.53
2022-11-12T04:44:32.749Z,4.60
2022-11-12T04:47:19.394Z,4.40
2022-11-12T04:50:10.130Z,5.10
2022-11-12T04:52:56.786Z,5.10
2022-11-12T04:55:44.383Z,5.00
2022-11-12T04:58:31.065Z,4.70
2022-11-12T05:01:17.901Z,5.05
2022-11-12T05:04:04.651Z,4.10
2022-11-12T05:06:54.463Z,4.45
2022-11-12T05:09:41.411Z,3.80
2022-11-12T05:12:29.435Z,4.10
2022-11-12T05:15:16.209Z,3.78
2022-11-12T05:18:02.533Z,4.07
2022-11-12T05:20:51.262Z,4.72
2022-11-12T05:23:37.824Z,5.60
2022-11-12T05:26:24.492Z,5.50
2022-11-12T05:29:12.356Z,4.95
2022-11-12T05:31:58.943Z,4.80
2022-11-12T05:34:46.101Z,5.63
2022-11-12T05:37:32.571Z,5.68
2022-11-12T05:40:19.441Z,5.05
2022-11-12T05:43:05.965Z,6.50
2022-11-12T05:45:54.137Z,5.03
2022-11-12T05:48:43.623Z,5.68
2022-11-12T05:51:30.172Z,5.35
2022-11-12T05:54:17.097Z,5.65
2022-11-12T05:57:04.138Z,6.10
2022-11-12T05:59:50.871Z,4.00
2022-11-12T06:02:38.851Z,5.05
2022-11-12T06:05:25.487Z,5.28
2022-11-12T06:08:12.214Z,4.57
2022-11-12T06:10:58.814Z,4.75
2022-11-12T06:13:45.400Z,4.95
2022-11-12T06:16:32.167Z,5.05
2022-11-12T06:19:20.032Z,4.53
2022-11-12T06:22:06.200Z,4.60
2022-11-12T06:24:52.773Z,4.70
2022-11-12T06:27:39.445Z,4.65
2022-11-12T06:30:26.191Z,5.30
2022-11-12T06:33:12.776Z,4.55
2022-11-12T06:36:02.914Z,4.95
2022-11-12T06:38:49.387Z,5.20
2022-11-12T06:41:36.159Z,6.00
2022-11-12T06:44:22.898Z,5.95
2022-11-12T06:47:10.053Z,6.32
2022-11-12T06:49:56.916Z,6.72
2022-11-12T06:52:45.121Z,5.50
2022-11-12T06:55:31.486Z,6.50
2022-11-12T06:58:18.390Z,6.30
2022-11-12T07:01:11.237Z,6.25
2022-11-12T07:03:57.942Z,7.07
2022-11-12T07:06:44.682Z,7.75
2022-11-12T07:09:32.532Z,6.43
2022-11-12T07:12:19.305Z,6.40
2022-11-12T07:15:07.226Z,6.85
2022-11-12T07:17:53.726Z,6.65
2022-11-12T07:20:40.458Z,6.60
2022-11-12T07:23:27.504Z,6.68
2022-11-12T07:26:17.867Z,7.85
2022-11-12T07:29:04.407Z,9.35
2022-11-12T07:31:51.617Z,8.82
2022-11-12T07:34:38.154Z,9.57
2022-11-12T07:37:24.537Z,7.97
2022-11-12T07:40:12.313Z,9.15
2022-11-12T07:43:01.481Z,8.75
2022-11-12T07:45:47.871Z,10.07
2022-11-12T07:48:35.528Z,9.93
2022-11-12T07:51:23.855Z,9.48
2022-11-12T07:54:10.544Z,12.90
2022-11-12T07:56:56.954Z,13.77
2022-11-12T07:59:46.462Z,11.35
2022-11-12T08:02:33.195Z,11.88
2022-11-12T08:05:21.818Z,9.68
2022-11-12T08:08:11.133Z,10.23
2022-11-12T08:10:58.807Z,12.27
2022-11-12T08:13:45.208Z,10.98
2022-11-12T08:16:33.246Z,11.63
2022-11-12T08:19:19.743Z,10.65
2022-11-12T08:22:06.423Z,10.82
2022-11-12T08:24:54.829Z,11.23
2022-11-12T08:27:41.683Z,10.60
2022-11-12T08:30:29.345Z,11.13
2022-11-12T08:33:17.728Z,13.68
2022-11-12T08:36:05.161Z,14.23
2022-11-12T08:38:54.239Z,9.68
2022-11-12T08:41:41.896Z,13.27
2022-11-12T08:44:28.377Z,12.75
2022-11-12T08:47:15.148Z,14.27
2022-11-12T08:50:07.132Z,14.02
2022-11-12T08:52:53.829Z,13.35
2022-11-12T08:55:41.038Z,10.32
2022-11-12T08:58:28.336Z,11.15
2022-11-12T09:01:18.170Z,12.65
2022-11-12T09:04:04.858Z,14.98
2022-11-12T09:06:54.210Z,13.85
2022-11-12T09:09:41.143Z,17.20
2022-11-12T09:12:27.957Z,14.73
2022-11-12T09:18:21.029Z,12.38
2022-11-12T09:21:09.685Z,17.08
2022-11-12T09:23:57.415Z,13.10
2022-11-12T09:26:44.069Z,14.70
2022-11-12T09:29:30.689Z,13.10
2022-11-12T09:32:17.284Z,14.55
2022-11-12T09:35:04.360Z,11.48
2022-11-12T09:37:50.881Z,13.77
2022-11-12T09:41:02.279Z,13.70
2022-11-12T09:43:51.824Z,11.23
2022-11-12T09:46:44.453Z,12.45
2022-11-12T09:49:36.986Z,13.20
2022-11-12T09:52:26.950Z,12.25
2022-11-12T09:55:22.001Z,13.45
2022-11-12T09:58:13.256Z,12.80
2022-11-12T10:01:03.835Z,12.35
2022-11-12T10:04:01.357Z,12.95
2022-11-12T10:06:56.144Z,11.50
2022-11-12T10:09:52.299Z,11.52
2022-11-12T10:12:51.377Z,10.05
2022-11-12T10:16:19.856Z,10.75
2022-11-12T10:19:20.101Z,8.20
2022-11-12T10:22:22.532Z,9.25
2022-11-12T10:25:16.990Z,7.90
2022-11-12T10:28:13.861Z,7.65
2022-11-12T10:31:08.181Z,8.20
2022-11-12T10:34:06.589Z,7.63
2022-11-12T10:36:58.317Z,7.70
2022-11-12T10:39:47.615Z,7.47
2022-11-12T10:42:36.450Z,9.07
2022-11-12T10:45:24.270Z,7.80
2022-11-12T10:48:27.333Z,8.48
2022-11-12T10:51:21.977Z,8.63
2022-11-12T10:54:29.631Z,8.40
2022-11-12T10:57:24.948Z,7.60
2022-11-12T11:00:20.985Z,6.38
2022-11-12T11:03:16.510Z,7.20
2022-11-12T11:06:06.493Z,7.03
2022-11-12T11:08:54.279Z,5.70
2022-11-12T11:11:49.857Z,6.47
2022-11-12T11:14:38.236Z,6.47
2022-11-12T11:17:24.871Z,4.88
2022-11-12T11:20:20.169Z,6.70
2022-11-12T11:23:18.400Z,6.20
2022-11-12T11:26:17.632Z,5.85
2022-11-12T11:29:21.820Z,4.18
2022-11-12T11:32:18.911Z,6.43
2022-11-12T11:35:14.718Z,5.63
2022-11-12T11:38:16.949Z,4.30
2022-11-12T11:41:22.181Z,5.22
2022-11-12T11:44:23.145Z,5.20
2022-11-12T11:47:33.989Z,4.88
2022-11-12T11:50:29.000Z,4.30
2022-11-12T11:53:24.607Z,5.03
2022-11-12T11:56:20.762Z,5.38
2022-11-12T11:59:18.192Z,5.57
2022-11-12T12:02:31.995Z,5.18
2022-11-12T12:05:33.804Z,5.45
2022-11-12T12:08:31.540Z,4.72
2022-11-12T12:11:21.990Z,5.03
2022-11-12T12:14:27.432Z,5.15
2022-11-12T12:17:31.744Z,6.55
2022-11-12T12:20:23.457Z,4.90
2022-11-12T12:23:20.501Z,5.53
2022-11-12T12:26:17.932Z,5.82
2022-11-12T12:29:11.869Z,5.50
2022-11-12T12:32:04.013Z,6.18
2022-11-12T12:34:57.253Z,5.95
2022-11-12T12:37:51.747Z,6.25
2022-11-12T12:40:44.290Z,7.25
2022-11-12T12:43:37.717Z,5.15
2022-11-12T12:46:27.895Z,6.43
2022-11-12T12:49:18.770Z,6.80
2022-11-12T12:52:05.358Z,6.80
2022-11-12T12:54:59.482Z,7.57
2022-11-12T12:57:46.048Z,6.97
2022-11-12T13:00:41.916Z,6.40
2022-11-12T13:03:51.798Z,6.93
2022-11-12T13:06:40.861Z,6.75
2022-11-12T13:09:28.501Z,5.70
2022-11-12T13:12:24.058Z,6.45
2022-11-12T13:15:15.742Z,6.43
2022-11-12T13:18:03.354Z,6.22
2022-11-12T13:21:11.852Z,6.25
2022-11-12T13:24:07.551Z,5.93
2022-11-12T13:26:56.839Z,4.93
2022-11-12T13:29:45.088Z,6.35
2022-11-12T13:32:43.493Z,6.43
2022-11-12T13:35:34.729Z,5.05
2022-11-12T13:38:21.070Z,5.32
2022-11-12T13:41:15.881Z,6.40
2022-11-12T13:44:07.472Z,4.82
2022-11-12T13:46:56.182Z,6.68
2022-11-12T13:49:43.702Z,5.50
2022-11-12T13:52:31.938Z,5.60
2022-11-12T13:55:20.747Z,6.38
2022-11-12T13:58:19.214Z,6.05
2022-11-12T14:01:10.333Z,5.20
2022-11-12T14:03:57.159Z,4.55
2022-11-12T14:06:46.331Z,6.43
2022-11-12T14:09:50.851Z,5.20
2022-11-12T14:13:03.260Z,4.80
2022-11-12T14:16:06.165Z,5.00
2022-11-12T14:19:09.626Z,5.65
2022-11-12T14:22:01.084Z,6.95
2022-11-12T14:24:59.761Z,5.85
2022-11-12T14:27:47.162Z,7.70
2022-11-12T14:30:33.633Z,8.23
2022-11-12T14:33:21.734Z,10.13
2022-11-12T14:36:14.086Z,9.25
2022-11-12T14:39:01.122Z,10.25
2022-11-12T14:41:50.742Z,12.55
2022-11-12T14:44:39.978Z,8.65
2022-11-12T14:47:26.912Z,9.10
2022-11-12T14:50:16.464Z,9.00
2022-11-12T14:53:08.050Z,8.50
2022-11-12T14:55:56.291Z,7.35
2022-11-12T14:58:44.610Z,6.75
2022-11-12T15:04:45.401Z,7.28
2022-11-12T15:07:33.982Z,7.43
2022-11-12T15:10:36.568Z,9.43
2022-11-12T15:13:27.351Z,10.07
2022-11-12T15:16:21.541Z,8.05
2022-11-12T15:19:17.249Z,8.80
2022-11-12T15:22:05.254Z,8.80
2022-11-12T15:24:51.999Z,8.98
2022-11-12T15:27:41.126Z,8.10
2022-11-12T15:30:31.042Z,8.38
2022-11-12T15:33:22.591Z,7.38
2022-11-12T15:36:22.264Z,7.32
2022-11-12T15:39:16.345Z,6.88
2022-11-12T15:42:05.576Z,8.10
2022-11-12T15:44:57.066Z,6.10
2022-11-12T15:47:43.520Z,6.55
2022-11-12T15:50:32.491Z,6.40
2022-11-12T15:53:19.458Z,7.15
2022-11-12T15:56:11.793Z,6.00
2022-11-12T15:58:58.834Z,6.32
2022-11-12T16:01:45.854Z,5.82
2022-11-12T16:04:32.268Z,5.95
2022-11-12T16:07:20.001Z,6.60
2022-11-12T16:10:07.729Z,6.32
2022-11-12T16:13:00.334Z,5.53
2022-11-12T16:15:47.017Z,5.03
2022-11-12T16:18:33.540Z,5.50
2022-11-12T16:21:21.073Z,7.72
2022-11-12T16:24:09.898Z,6.28
2022-11-12T16:27:01.198Z,6.88
2022-11-12T16:29:47.763Z,5.90
2022-11-12T16:32:34.356Z,7.03
2022-11-12T16:35:21.960Z,8.48
2022-11-12T16:38:14.454Z,7.22
2022-11-12T16:41:02.578Z,7.47
2022-11-12T16:43:52.466Z,7.50
2022-11-12T16:46:40.965Z,7.38
2022-11-12T16:49:27.583Z,8.35
2022-11-12T16:52:14.278Z,8.95
2022-11-12T16:55:04.619Z,8.55
2022-11-12T16:57:55.226Z,10.15
2022-11-12T17:00:42.800Z,8.73
2022-11-12T17:03:29.566Z,9.57
2022-11-12T17:06:16.327Z,8.75
2022-11-12T17:09:03.257Z,9.43
2022-11-12T17:11:49.567Z,8.88
2022-11-12T17:14:37.538Z,11.32
2022-11-12T17:17:24.210Z,8.45
2022-11-12T17:20:11.704Z,8.68
2022-11-12T17:22:59.015Z,12.82
2022-11-12T17:25:45.600Z,11.85
2022-11-12T17:28:33.557Z,10.88
2022-11-12T17:31:22.674Z,10.57
2022-11-12T17:34:09.487Z,12.63
2022-11-12T17:36:56.165Z,10.73
2022-11-12T17:39:44.334Z,9.93
2022-11-12T17:42:31.146Z,9.27
2022-11-12T17:45:18.091Z,10.07
2022-11-12T17:48:06.166Z,11.57
2022-11-12T17:50:54.080Z,10.30
2022-11-12T17:53:40.667Z,10.70
2022-11-12T17:56:27.188Z,11.68
2022-11-12T17:59:13.866Z,10.13
2022-11-12T18:02:00.704Z,11.10
2022-11-12T18:04:48.724Z,11.82
2022-11-12T18:07:35.329Z,12.50
2022-11-12T18:10:22.116Z,13.48
2022-11-12T18:13:08.943Z,13.35
2022-11-12T18:15:55.666Z,16.48
2022-11-12T18:18:42.414Z,14.65
2022-11-12T18:21:30.595Z,13.13
2022-11-12T18:24:18.197Z,11.32
2022-11-12T18:27:04.989Z,10.50
2022-11-12T18:29:51.641Z,10.88
2022-11-12T18:32:39.267Z,12.25
2022-11-12T18:35:29.638Z,10.23
2022-11-12T18:38:18.005Z,10.00
2022-11-12T18:41:06.848Z,8.73
2022-11-12T18:43:54.041Z,10.45
2022-11-12T18:46:40.650Z,11.52
2022-11-12T18:49:27.308Z,12.02
2022-11-12T18:52:13.780Z,10.27
2022-11-12T18:55:01.593Z,11.45
2022-11-12T18:57:47.951Z,11.70
2022-11-12T19:00:35.075Z,11.32
2022-11-12T19:03:21.405Z,13.82
2022-11-12T19:06:08.824Z,12.07
2022-11-12T19:09:00.307Z,11.52
2022-11-12T19:11:48.476Z,12.40
2022-11-12T19:14:35.188Z,13.68
2022-11-12T19:17:21.965Z,14.18
2022-11-12T19:20:10.025Z,16.92
2022-11-12T19:22:57.165Z,15.02
2022-11-12T19:25:43.640Z,16.75
2022-11-12T19:28:31.752Z,14.88
2022-11-12T19:31:20.576Z,18.33
2022-11-12T19:34:07.216Z,16.10
2022-11-12T19:37:11.867Z,14.23
2022-11-12T19:40:00.555Z,12.02
2022-11-12T19:42:48.027Z,12.07
2022-11-12T19:45:36.141Z,13.38
2022-11-12T19:48:22.755Z,12.98
2022-11-12T19:51:10.942Z,10.70
2022-11-12T19:53:57.636Z,9.80
2022-11-12T19:56:44.932Z,10.60
2022-11-12T19:59:31.991Z,9.90
2022-11-12T20:02:20.116Z,10.77
2022-11-12T20:05:07.323Z,11.18
2022-11-12T20:07:53.911Z,9.65
2022-11-12T20:10:40.639Z,8.80
2022-11-12T20:13:28.445Z,8.70
2022-11-12T20:16:20.787Z,10.68
2022-11-12T20:19:13.471Z,10.93
2022-11-12T20:22:00.059Z,10.00
2022-11-12T20:24:46.917Z,11.45
2022-11-12T20:27:33.477Z,11.35
2022-11-12T20:30:20.048Z,12.60
2022-11-12T20:33:06.765Z,12.27
2022-11-12T20:35:55.347Z,13.10
2022-11-12T20:38:43.613Z,11.93
2022-11-12T20:41:31.283Z,10.70
2022-11-12T20:44:19.385Z,11.88
2022-11-12T20:47:05.862Z,12.70
2022-11-12T20:49:52.482Z,11.77
2022-11-12T20:52:40.383Z,10.80
2022-11-12T20:55:26.722Z,10.13
2022-11-12T20:58:13.545Z,9.88
2022-11-12T21:01:00.229Z,10.90
2022-11-12T21:03:47.492Z,11.05
2022-11-12T21:06:34.238Z,10.90
2022-11-12T21:09:22.200Z,9.57
2022-11-12T21:12:09.138Z,11.95
2022-11-12T21:14:55.838Z,11.35
2022-11-12T21:17:42.389Z,11.70
2022-11-12T21:20:28.826Z,11.40
2022-11-12T21:23:15.510Z,11.45
2022-11-12T21:26:08.322Z,11.20
2022-11-12T21:28:56.166Z,10.23
2022-11-12T21:31:42.584Z,11.82
2022-11-12T21:34:31.451Z,10.27
2022-11-12T21:37:19.921Z,8.60
2022-11-12T21:40:07.461Z,11.32
2022-11-12T21:42:55.241Z,11.43
2022-11-12T21:45:46.530Z,11.90
2022-11-12T21:48:33.630Z,11.32
2022-11-12T21:51:24.820Z,10.98
2022-11-12T21:54:14.326Z,13.23
2022-11-12T21:57:00.822Z,13.20
2022-11-12T21:59:48.905Z,12.57
2022-11-12T22:02:35.413Z,15.00
2022-11-12T22:05:21.901Z,17.58
2022-11-12T22:08:08.419Z,14.10
2022-11-12T22:11:01.426Z,15.65
2022-11-12T22:13:48.436Z,17.85
2022-11-12T22:16:36.134Z,21.95
2022-11-12T22:19:23.664Z,18.70
2022-11-12T22:22:10.135Z,16.98
2022-11-12T22:24:59.922Z,18.10
2022-11-12T22:27:46.585Z,15.93
2022-11-12T22:30:33.237Z,18.38
2022-11-12T22:33:21.339Z,16.35
2022-11-12T22:36:11.099Z,17.38
2022-11-12T22:38:59.970Z,17.23
2022-11-12T22:41:46.628Z,17.13
2022-11-12T22:44:33.482Z,16.90
2022-11-12T22:47:19.953Z,17.20
2022-11-12T22:50:09.497Z,17.58
2022-11-12T22:52:56.790Z,16.60
2022-11-12T22:55:43.340Z,17.67
2022-11-12T22:58:30.804Z,17.23
2022-11-12T23:01:22.760Z,19.15
2022-11-12T23:04:10.011Z,17.25
2022-11-12T23:06:58.110Z,17.60
2022-11-12T23:09:44.891Z,17.60
2022-11-12T23:12:31.731Z,17.50
2022-11-12T23:15:18.138Z,19.48
2022-11-12T23:18:04.994Z,18.88
2022-11-12T23:20:52.609Z,18.48
2022-11-12T23:23:40.692Z,17.95
2022-11-12T23:26:30.896Z,18.02
2022-11-12T23:29:17.403Z,17.90
2022-11-12T23:32:06.699Z,18.15
2022-11-12T23:34:53.294Z,17.80
2022-11-12T23:37:39.996Z,17.33
2022-11-12T23:40:31.056Z,18.48
2022-11-12T23:43:17.779Z,17.23
2022-11-12T23:46:04.757Z,14.32
2022-11-12T23:48:51.576Z,15.98
2022-11-12T23:51:37.943Z,14.82
2022-11-12T23:54:24.424Z,14.45
2022-11-12T23:57:12.422Z,13.65
2022-11-12T23:59:59.217Z,13.68
